sensor_id;sensor_type;location;lat;lon;timestamp;P1;durP1;ratioP1;P2;durP2;ratioP2
29314;SDS011;16320;53.954;9.506;2023-12-22T00:00:19;19.75;;;3.55;;
29314;SDS011;16320;53.954;9.506;2023-12-22T00:02:48;28.70;;;3.67;;
29314;SDS011;16320;53.954;9.506;2023-12-22T00:05:16;21.75;;;4.40;;
29314;SDS011;16320;53.954;9.506;2023-12-22T00:07:44;25.38;;;4.10;;
29314;SDS011;16320;53.954;9.506;2023-12-22T00:10:13;24.90;;;4.05;;
29314;SDS011;16320;53.954;9.506;2023-12-22T00:12:42;30.85;;;4.90;;
29314;SDS011;16320;53.954;9.506;2023-12-22T00:15:11;34.85;;;4.97;;
29314;SDS011;16320;53.954;9.506;2023-12-22T00:17:40;25.02;;;4.50;;
29314;SDS011;16320;53.954;9.506;2023-12-22T00:20:08;26.58;;;4.53;;
29314;SDS011;16320;53.954;9.506;2023-12-22T00:22:40;29.80;;;3.47;;
29314;SDS011;16320;53.954;9.506;2023-12-22T00:25:08;28.55;;;5.43;;
29314;SDS011;16320;53.954;9.506;2023-12-22T00:27:36;19.90;;;4.18;;
29314;SDS011;16320;53.954;9.506;2023-12-22T00:30:05;25.83;;;5.10;;
29314;SDS011;16320;53.954;9.506;2023-12-22T00:32:35;29.30;;;6.05;;
29314;SDS011;16320;53.954;9.506;2023-12-22T00:35:03;39.35;;;4.25;;
29314;SDS011;16320;53.954;9.506;2023-12-22T00:37:32;33.13;;;5.00;;
29314;SDS011;16320;53.954;9.506;2023-12-22T00:40:00;23.25;;;4.40;;
29314;SDS011;16320;53.954;9.506;2023-12-22T00:42:30;25.83;;;4.22;;
29314;SDS011;16320;53.954;9.506;2023-12-22T00:44:58;29.65;;;3.70;;
29314;SDS011;16320;53.954;9.506;2023-12-22T00:47:26;22.13;;;4.25;;
29314;SDS011;16320;53.954;9.506;2023-12-22T00:49:56;27.10;;;4.20;;
29314;SDS011;16320;53.954;9.506;2023-12-22T00:52:24;27.38;;;3.97;;
29314;SDS011;16320;53.954;9.506;2023-12-22T00:54:52;26.55;;;3.45;;
29314;SDS011;16320;53.954;9.506;2023-12-22T00:57:20;22.55;;;3.88;;
29314;SDS011;16320;53.954;9.506;2023-12-22T00:59:48;29.73;;;4.05;;
29314;SDS011;16320;53.954;9.506;2023-12-22T01:02:17;21.40;;;3.22;;
29314;SDS011;16320;53.954;9.506;2023-12-22T01:04:46;20.23;;;3.33;;
29314;SDS011;16320;53.954;9.506;2023-12-22T01:07:15;17.83;;;2.85;;
29314;SDS011;16320;53.954;9.506;2023-12-22T01:09:45;28.45;;;3.28;;
29314;SDS011;16320;53.954;9.506;2023-12-22T01:12:13;18.65;;;3.35;;
29314;SDS011;16320;53.954;9.506;2023-12-22T01:14:41;17.15;;;2.60;;
29314;SDS011;16320;53.954;9.506;2023-12-22T01:17:11;23.17;;;2.58;;
29314;SDS011;16320;53.954;9.506;2023-12-22T01:19:39;17.67;;;2.67;;
29314;SDS011;16320;53.954;9.506;2023-12-22T01:22:07;24.13;;;3.63;;
29314;SDS011;16320;53.954;9.506;2023-12-22T01:24:35;13.45;;;2.13;;
29314;SDS011;16320;53.954;9.506;2023-12-22T01:27:06;22.95;;;3.05;;
29314;SDS011;16320;53.954;9.506;2023-12-22T01:29:34;23.52;;;2.67;;
29314;SDS011;16320;53.954;9.506;2023-12-22T01:32:03;20.95;;;3.10;;
29314;SDS011;16320;53.954;9.506;2023-12-22T01:34:31;21.35;;;2.35;;
29314;SDS011;16320;53.954;9.506;2023-12-22T01:37:00;16.75;;;3.38;;
29314;SDS011;16320;53.954;9.506;2023-12-22T01:39:28;14.98;;;2.70;;
29314;SDS011;16320;53.954;9.506;2023-12-22T01:41:56;12.07;;;2.15;;
29314;SDS011;16320;53.954;9.506;2023-12-22T01:44:24;12.65;;;2.05;;
29314;SDS011;16320;53.954;9.506;2023-12-22T01:46:52;12.88;;;1.60;;
29314;SDS011;16320;53.954;9.506;2023-12-22T01:49:21;18.98;;;1.83;;
29314;SDS011;16320;53.954;9.506;2023-12-22T01:51:51;10.60;;;1.90;;
29314;SDS011;16320;53.954;9.506;2023-12-22T01:54:20;10.13;;;1.92;;
29314;SDS011;16320;53.954;9.506;2023-12-22T01:56:48;11.75;;;1.85;;
29314;SDS011;16320;53.954;9.506;2023-12-22T01:59:16;10.52;;;1.77;;
29314;SDS011;16320;53.954;9.506;2023-12-22T02:01:44;16.60;;;2.67;;
29314;SDS011;16320;53.954;9.506;2023-12-22T02:04:14;12.52;;;2.30;;
29314;SDS011;16320;53.954;9.506;2023-12-22T02:06:43;14.25;;;2.20;;
29314;SDS011;16320;53.954;9.506;2023-12-22T02:09:11;10.02;;;1.85;;
29314;SDS011;16320;53.954;9.506;2023-12-22T02:11:39;12.43;;;1.52;;
29314;SDS011;16320;53.954;9.506;2023-12-22T02:14:08;11.85;;;1.75;;
29314;SDS011;16320;53.954;9.506;2023-12-22T02:19:53;13.40;;;1.33;;
29314;SDS011;16320;53.954;9.506;2023-12-22T02:24:52;11.10;;;2.17;;
29314;SDS011;16320;53.954;9.506;2023-12-22T02:29:57;16.92;;;2.17;;
29314;SDS011;16320;53.954;9.506;2023-12-22T02:33:00;21.90;;;2.40;;
29314;SDS011;16320;53.954;9.506;2023-12-22T02:35:32;12.18;;;1.77;;
29314;SDS011;16320;53.954;9.506;2023-12-22T02:38:07;12.07;;;1.42;;
29314;SDS011;16320;53.954;9.506;2023-12-22T02:40:39;8.07;;;1.15;;
29314;SDS011;16320;53.954;9.506;2023-12-22T02:43:07;3.80;;;1.75;;
29314;SDS011;16320;53.954;9.506;2023-12-22T02:45:36;2.42;;;0.32;;
29314;SDS011;16320;53.954;9.506;2023-12-22T02:48:05;6.78;;;1.40;;
29314;SDS011;16320;53.954;9.506;2023-12-22T02:50:33;10.68;;;0.75;;
29314;SDS011;16320;53.954;9.506;2023-12-22T02:53:02;7.57;;;0.80;;
29314;SDS011;16320;53.954;9.506;2023-12-22T02:55:30;2.78;;;0.60;;
29314;SDS011;16320;53.954;9.506;2023-12-22T02:57:59;3.53;;;0.65;;
29314;SDS011;16320;53.954;9.506;2023-12-22T03:00:28;7.32;;;1.25;;
29314;SDS011;16320;53.954;9.506;2023-12-22T03:02:56;13.75;;;2.55;;
29314;SDS011;16320;53.954;9.506;2023-12-22T03:05:25;13.73;;;1.67;;
29314;SDS011;16320;53.954;9.506;2023-12-22T03:07:52;10.85;;;1.60;;
29314;SDS011;16320;53.954;9.506;2023-12-22T03:10:21;12.20;;;0.93;;
29314;SDS011;16320;53.954;9.506;2023-12-22T03:12:49;8.45;;;1.48;;
29314;SDS011;16320;53.954;9.506;2023-12-22T03:15:17;17.52;;;2.65;;
29314;SDS011;16320;53.954;9.506;2023-12-22T03:17:45;14.05;;;1.65;;
29314;SDS011;16320;53.954;9.506;2023-12-22T03:20:14;16.40;;;2.22;;
29314;SDS011;16320;53.954;9.506;2023-12-22T03:22:42;20.23;;;2.38;;
29314;SDS011;16320;53.954;9.506;2023-12-22T03:25:10;10.77;;;1.88;;
29314;SDS011;16320;53.954;9.506;2023-12-22T03:27:41;19.70;;;2.53;;
29314;SDS011;16320;53.954;9.506;2023-12-22T03:30:09;12.95;;;2.03;;
29314;SDS011;16320;53.954;9.506;2023-12-22T03:32:38;25.92;;;4.07;;
29314;SDS011;16320;53.954;9.506;2023-12-22T03:35:07;24.42;;;3.22;;
29314;SDS011;16320;53.954;9.506;2023-12-22T03:37:35;15.77;;;2.17;;
29314;SDS011;16320;53.954;9.506;2023-12-22T03:40:03;28.63;;;4.05;;
29314;SDS011;16320;53.954;9.506;2023-12-22T03:42:33;17.88;;;2.20;;
29314;SDS011;16320;53.954;9.506;2023-12-22T03:45:01;25.15;;;3.53;;
29314;SDS011;16320;53.954;9.506;2023-12-22T03:47:30;21.45;;;3.38;;
29314;SDS011;16320;53.954;9.506;2023-12-22T03:49:59;26.65;;;3.47;;
29314;SDS011;16320;53.954;9.506;2023-12-22T03:52:27;17.08;;;2.65;;
29314;SDS011;16320;53.954;9.506;2023-12-22T03:54:56;21.73;;;3.03;;
29314;SDS011;16320;53.954;9.506;2023-12-22T03:57:24;22.05;;;2.80;;
29314;SDS011;16320;53.954;9.506;2023-12-22T03:59:52;26.08;;;3.30;;
29314;SDS011;16320;53.954;9.506;2023-12-22T04:02:20;19.77;;;2.88;;
29314;SDS011;16320;53.954;9.506;2023-12-22T04:04:48;20.85;;;2.75;;
29314;SDS011;16320;53.954;9.506;2023-12-22T04:07:16;16.27;;;3.00;;
29314;SDS011;16320;53.954;9.506;2023-12-22T04:09:45;20.20;;;2.45;;
29314;SDS011;16320;53.954;9.506;2023-12-22T04:12:13;20.48;;;2.08;;
29314;SDS011;16320;53.954;9.506;2023-12-22T04:14:41;18.80;;;2.40;;
29314;SDS011;16320;53.954;9.506;2023-12-22T04:17:10;24.70;;;2.88;;
29314;SDS011;16320;53.954;9.506;2023-12-22T04:19:38;16.75;;;2.60;;
29314;SDS011;16320;53.954;9.506;2023-12-22T04:22:06;17.77;;;1.65;;
29314;SDS011;16320;53.954;9.506;2023-12-22T04:24:34;17.73;;;2.15;;
29314;SDS011;16320;53.954;9.506;2023-12-22T04:27:03;18.23;;;2.90;;
29314;SDS011;16320;53.954;9.506;2023-12-22T04:29:32;20.13;;;3.50;;
29314;SDS011;16320;53.954;9.506;2023-12-22T04:32:00;24.90;;;2.97;;
29314;SDS011;16320;53.954;9.506;2023-12-22T04:34:29;21.88;;;2.92;;
29314;SDS011;16320;53.954;9.506;2023-12-22T04:36:57;22.30;;;3.03;;
29314;SDS011;16320;53.954;9.506;2023-12-22T04:39:25;24.35;;;3.47;;
29314;SDS011;16320;53.954;9.506;2023-12-22T04:41:53;14.32;;;2.17;;
29314;SDS011;16320;53.954;9.506;2023-12-22T04:44:21;16.55;;;2.70;;
29314;SDS011;16320;53.954;9.506;2023-12-22T04:46:49;18.98;;;2.03;;
29314;SDS011;16320;53.954;9.506;2023-12-22T04:49:17;25.63;;;2.33;;
29314;SDS011;16320;53.954;9.506;2023-12-22T04:51:45;12.15;;;2.90;;
29314;SDS011;16320;53.954;9.506;2023-12-22T04:54:13;12.93;;;2.30;;
29314;SDS011;16320;53.954;9.506;2023-12-22T04:56:41;19.17;;;3.42;;
29314;SDS011;16320;53.954;9.506;2023-12-22T04:59:09;22.38;;;2.75;;
29314;SDS011;16320;53.954;9.506;2023-12-22T05:01:37;18.08;;;1.92;;
29314;SDS011;16320;53.954;9.506;2023-12-22T05:04:05;21.65;;;3.20;;
29314;SDS011;16320;53.954;9.506;2023-12-22T05:06:37;21.70;;;2.65;;
29314;SDS011;16320;53.954;9.506;2023-12-22T05:09:05;16.45;;;3.42;;
29314;SDS011;16320;53.954;9.506;2023-12-22T05:11:33;27.92;;;3.38;;
29314;SDS011;16320;53.954;9.506;2023-12-22T05:14:02;12.85;;;1.80;;
29314;SDS011;16320;53.954;9.506;2023-12-22T05:16:30;13.70;;;1.63;;
29314;SDS011;16320;53.954;9.506;2023-12-22T05:18:58;10.98;;;1.80;;
29314;SDS011;16320;53.954;9.506;2023-12-22T05:21:26;10.82;;;1.60;;
29314;SDS011;16320;53.954;9.506;2023-12-22T05:23:55;15.00;;;1.55;;
29314;SDS011;16320;53.954;9.506;2023-12-22T05:26:23;8.35;;;1.38;;
29314;SDS011;16320;53.954;9.506;2023-12-22T05:28:54;12.57;;;1.65;;
29314;SDS011;16320;53.954;9.506;2023-12-22T05:31:22;14.00;;;1.20;;
29314;SDS011;16320;53.954;9.506;2023-12-22T05:33:50;13.10;;;1.30;;
29314;SDS011;16320;53.954;9.506;2023-12-22T05:36:18;10.35;;;1.45;;
29314;SDS011;16320;53.954;9.506;2023-12-22T05:38:46;17.45;;;3.55;;
29314;SDS011;16320;53.954;9.506;2023-12-22T05:41:14;8.15;;;1.27;;
29314;SDS011;16320;53.954;9.506;2023-12-22T05:43:42;13.85;;;1.75;;
29314;SDS011;16320;53.954;9.506;2023-12-22T05:46:10;18.85;;;1.45;;
29314;SDS011;16320;53.954;9.506;2023-12-22T05:48:38;12.23;;;1.73;;
29314;SDS011;16320;53.954;9.506;2023-12-22T05:51:06;17.70;;;2.85;;
29314;SDS011;16320;53.954;9.506;2023-12-22T05:53:40;12.80;;;2.22;;
29314;SDS011;16320;53.954;9.506;2023-12-22T05:56:18;14.25;;;1.92;;
29314;SDS011;16320;53.954;9.506;2023-12-22T05:58:48;17.70;;;1.90;;
29314;SDS011;16320;53.954;9.506;2023-12-22T06:01:17;12.40;;;2.45;;
29314;SDS011;16320;53.954;9.506;2023-12-22T06:03:46;15.77;;;2.30;;
29314;SDS011;16320;53.954;9.506;2023-12-22T06:06:15;24.27;;;3.72;;
29314;SDS011;16320;53.954;9.506;2023-12-22T06:08:43;29.83;;;3.33;;
29314;SDS011;16320;53.954;9.506;2023-12-22T06:11:11;20.05;;;2.50;;
29314;SDS011;16320;53.954;9.506;2023-12-22T06:13:39;29.25;;;3.65;;
29314;SDS011;16320;53.954;9.506;2023-12-22T06:16:11;19.92;;;2.38;;
29314;SDS011;16320;53.954;9.506;2023-12-22T06:18:41;27.45;;;3.63;;
29314;SDS011;16320;53.954;9.506;2023-12-22T06:21:10;25.98;;;3.05;;
29314;SDS011;16320;53.954;9.506;2023-12-22T06:23:38;17.40;;;2.92;;
29314;SDS011;16320;53.954;9.506;2023-12-22T06:26:09;17.92;;;4.53;;
29314;SDS011;16320;53.954;9.506;2023-12-22T06:28:38;25.47;;;3.57;;
29314;SDS011;16320;53.954;9.506;2023-12-22T06:31:08;26.10;;;3.75;;
29314;SDS011;16320;53.954;9.506;2023-12-22T06:33:48;22.13;;;3.28;;
29314;SDS011;16320;53.954;9.506;2023-12-22T06:36:20;33.88;;;4.85;;
29314;SDS011;16320;53.954;9.506;2023-12-22T06:38:50;24.75;;;3.90;;
29314;SDS011;16320;53.954;9.506;2023-12-22T06:41:23;30.15;;;4.20;;
29314;SDS011;16320;53.954;9.506;2023-12-22T06:43:57;24.30;;;3.55;;
29314;SDS011;16320;53.954;9.506;2023-12-22T06:46:27;22.55;;;3.78;;
29314;SDS011;16320;53.954;9.506;2023-12-22T06:48:57;27.45;;;3.80;;
29314;SDS011;16320;53.954;9.506;2023-12-22T06:51:30;26.70;;;3.58;;
29314;SDS011;16320;53.954;9.506;2023-12-22T06:54:02;34.50;;;3.63;;
29314;SDS011;16320;53.954;9.506;2023-12-22T06:56:32;20.73;;;3.78;;
29314;SDS011;16320;53.954;9.506;2023-12-22T06:59:02;16.17;;;2.67;;
29314;SDS011;16320;53.954;9.506;2023-12-22T07:01:35;17.85;;;2.55;;
29314;SDS011;16320;53.954;9.506;2023-12-22T07:04:03;27.52;;;3.35;;
29314;SDS011;16320;53.954;9.506;2023-12-22T07:06:33;32.47;;;3.28;;
29314;SDS011;16320;53.954;9.506;2023-12-22T07:11:40;17.13;;;2.60;;
29314;SDS011;16320;53.954;9.506;2023-12-22T07:14:17;22.60;;;3.55;;
29314;SDS011;16320;53.954;9.506;2023-12-22T07:16:45;28.05;;;3.63;;
29314;SDS011;16320;53.954;9.506;2023-12-22T07:19:13;20.85;;;3.45;;
29314;SDS011;16320;53.954;9.506;2023-12-22T07:21:42;31.02;;;3.42;;
29314;SDS011;16320;53.954;9.506;2023-12-22T07:24:12;27.35;;;3.63;;
29314;SDS011;16320;53.954;9.506;2023-12-22T07:26:43;30.70;;;3.78;;
29314;SDS011;16320;53.954;9.506;2023-12-22T07:29:11;16.92;;;3.53;;
29314;SDS011;16320;53.954;9.506;2023-12-22T07:31:39;15.70;;;3.95;;
29314;SDS011;16320;53.954;9.506;2023-12-22T07:34:09;18.48;;;3.58;;
29314;SDS011;16320;53.954;9.506;2023-12-22T07:36:37;19.63;;;3.45;;
29314;SDS011;16320;53.954;9.506;2023-12-22T07:39:16;18.20;;;2.65;;
29314;SDS011;16320;53.954;9.506;2023-12-22T07:41:45;20.48;;;3.30;;
29314;SDS011;16320;53.954;9.506;2023-12-22T07:44:14;23.10;;;3.22;;
29314;SDS011;16320;53.954;9.506;2023-12-22T07:46:42;16.88;;;2.15;;
29314;SDS011;16320;53.954;9.506;2023-12-22T07:49:10;16.33;;;2.20;;
29314;SDS011;16320;53.954;9.506;2023-12-22T07:51:41;16.35;;;2.20;;
29314;SDS011;16320;53.954;9.506;2023-12-22T07:54:10;13.00;;;2.20;;
29314;SDS011;16320;53.954;9.506;2023-12-22T07:56:38;21.42;;;2.60;;
29314;SDS011;16320;53.954;9.506;2023-12-22T07:59:06;21.65;;;2.47;;
29314;SDS011;16320;53.954;9.506;2023-12-22T08:01:52;16.98;;;2.92;;
29314;SDS011;16320;53.954;9.506;2023-12-22T08:04:20;18.65;;;2.22;;
29314;SDS011;16320;53.954;9.506;2023-12-22T08:06:48;14.43;;;2.30;;
29314;SDS011;16320;53.954;9.506;2023-12-22T08:09:16;19.58;;;3.25;;
29314;SDS011;16320;53.954;9.506;2023-12-22T08:11:44;19.55;;;3.33;;
29314;SDS011;16320;53.954;9.506;2023-12-22T08:14:14;29.55;;;3.15;;
29314;SDS011;16320;53.954;9.506;2023-12-22T08:16:42;17.85;;;3.65;;
29314;SDS011;16320;53.954;9.506;2023-12-22T08:19:11;24.40;;;4.10;;
29314;SDS011;16320;53.954;9.506;2023-12-22T08:21:39;26.42;;;3.58;;
29314;SDS011;16320;53.954;9.506;2023-12-22T08:24:12;20.25;;;3.25;;
29314;SDS011;16320;53.954;9.506;2023-12-22T08:26:51;29.75;;;4.20;;
29314;SDS011;16320;53.954;9.506;2023-12-22T08:29:19;29.13;;;3.47;;
29314;SDS011;16320;53.954;9.506;2023-12-22T08:31:47;19.65;;;3.03;;
29314;SDS011;16320;53.954;9.506;2023-12-22T08:34:15;12.40;;;2.58;;
29314;SDS011;16320;53.954;9.506;2023-12-22T08:36:43;19.08;;;3.03;;
29314;SDS011;16320;53.954;9.506;2023-12-22T08:39:12;17.73;;;1.90;;
29314;SDS011;16320;53.954;9.506;2023-12-22T08:41:41;20.25;;;2.17;;
29314;SDS011;16320;53.954;9.506;2023-12-22T08:44:09;13.70;;;2.20;;
29314;SDS011;16320;53.954;9.506;2023-12-22T08:46:41;16.00;;;2.08;;
29314;SDS011;16320;53.954;9.506;2023-12-22T08:49:09;21.35;;;2.58;;
29314;SDS011;16320;53.954;9.506;2023-12-22T08:51:37;12.23;;;1.85;;
29314;SDS011;16320;53.954;9.506;2023-12-22T08:54:06;14.88;;;1.65;;
29314;SDS011;16320;53.954;9.506;2023-12-22T08:56:34;11.40;;;2.10;;
29314;SDS011;16320;53.954;9.506;2023-12-22T08:59:02;18.88;;;1.75;;
29314;SDS011;16320;53.954;9.506;2023-12-22T09:01:30;14.00;;;2.28;;
29314;SDS011;16320;53.954;9.506;2023-12-22T09:03:58;19.67;;;2.67;;
29314;SDS011;16320;53.954;9.506;2023-12-22T09:06:27;20.65;;;2.60;;
29314;SDS011;16320;53.954;9.506;2023-12-22T09:08:57;22.40;;;2.72;;
29314;SDS011;16320;53.954;9.506;2023-12-22T09:11:25;16.98;;;2.13;;
29314;SDS011;16320;53.954;9.506;2023-12-22T09:13:53;15.02;;;2.80;;
29314;SDS011;16320;53.954;9.506;2023-12-22T09:16:22;18.77;;;2.30;;
29314;SDS011;16320;53.954;9.506;2023-12-22T09:18:51;23.27;;;2.67;;
29314;SDS011;16320;53.954;9.506;2023-12-22T09:21:21;25.40;;;2.13;;
29314;SDS011;16320;53.954;9.506;2023-12-22T09:23:49;16.88;;;1.88;;
29314;SDS011;16320;53.954;9.506;2023-12-22T09:26:17;17.42;;;2.53;;
29314;SDS011;16320;53.954;9.506;2023-12-22T09:28:45;18.25;;;2.35;;
29314;SDS011;16320;53.954;9.506;2023-12-22T09:31:13;17.05;;;2.72;;
29314;SDS011;16320;53.954;9.506;2023-12-22T09:33:42;19.95;;;2.85;;
29314;SDS011;16320;53.954;9.506;2023-12-22T09:36:10;24.05;;;2.17;;
29314;SDS011;16320;53.954;9.506;2023-12-22T09:38:39;24.08;;;2.95;;
29314;SDS011;16320;53.954;9.506;2023-12-22T09:41:08;14.35;;;2.65;;
29314;SDS011;16320;53.954;9.506;2023-12-22T09:43:37;16.50;;;2.95;;
29314;SDS011;16320;53.954;9.506;2023-12-22T09:46:06;13.05;;;1.98;;
29314;SDS011;16320;53.954;9.506;2023-12-22T09:48:36;17.58;;;3.05;;
29314;SDS011;16320;53.954;9.506;2023-12-22T09:51:07;12.77;;;1.77;;
29314;SDS011;16320;53.954;9.506;2023-12-22T09:53:35;15.55;;;2.50;;
29314;SDS011;16320;53.954;9.506;2023-12-22T09:56:05;15.23;;;1.95;;
29314;SDS011;16320;53.954;9.506;2023-12-22T09:58:33;11.60;;;1.65;;
29314;SDS011;16320;53.954;9.506;2023-12-22T10:01:02;11.25;;;1.77;;
29314;SDS011;16320;53.954;9.506;2023-12-22T10:03:32;14.93;;;1.58;;
29314;SDS011;16320;53.954;9.506;2023-12-22T10:06:01;15.27;;;1.88;;
29314;SDS011;16320;53.954;9.506;2023-12-22T10:08:30;10.98;;;1.55;;
29314;SDS011;16320;53.954;9.506;2023-12-22T10:10:59;19.25;;;1.73;;
29314;SDS011;16320;53.954;9.506;2023-12-22T10:13:29;11.40;;;2.35;;
29314;SDS011;16320;53.954;9.506;2023-12-22T10:15:57;13.05;;;1.80;;
29314;SDS011;16320;53.954;9.506;2023-12-22T10:18:26;17.13;;;3.08;;
29314;SDS011;16320;53.954;9.506;2023-12-22T10:20:54;12.35;;;2.25;;
29314;SDS011;16320;53.954;9.506;2023-12-22T10:23:22;25.83;;;2.35;;
29314;SDS011;16320;53.954;9.506;2023-12-22T10:25:50;18.88;;;2.65;;
29314;SDS011;16320;53.954;9.506;2023-12-22T10:28:18;17.42;;;2.15;;
29314;SDS011;16320;53.954;9.506;2023-12-22T10:30:51;16.48;;;2.65;;
29314;SDS011;16320;53.954;9.506;2023-12-22T10:33:19;19.23;;;3.17;;
29314;SDS011;16320;53.954;9.506;2023-12-22T10:35:47;14.27;;;2.28;;
29314;SDS011;16320;53.954;9.506;2023-12-22T10:38:18;19.38;;;2.00;;
29314;SDS011;16320;53.954;9.506;2023-12-22T10:40:46;21.58;;;2.78;;
29314;SDS011;16320;53.954;9.506;2023-12-22T10:43:16;9.23;;;1.88;;
29314;SDS011;16320;53.954;9.506;2023-12-22T10:45:44;17.00;;;3.78;;
29314;SDS011;16320;53.954;9.506;2023-12-22T10:48:12;14.20;;;2.35;;
29314;SDS011;16320;53.954;9.506;2023-12-22T10:50:41;19.58;;;2.40;;
29314;SDS011;16320;53.954;9.506;2023-12-22T10:53:10;23.42;;;2.88;;
29314;SDS011;16320;53.954;9.506;2023-12-22T10:55:42;17.95;;;2.17;;
29314;SDS011;16320;53.954;9.506;2023-12-22T10:58:16;26.55;;;2.75;;
29314;SDS011;16320;53.954;9.506;2023-12-22T11:00:45;23.05;;;3.13;;
29314;SDS011;16320;53.954;9.506;2023-12-22T11:03:17;17.13;;;2.70;;
29314;SDS011;16320;53.954;9.506;2023-12-22T11:05:49;18.95;;;1.98;;
29314;SDS011;16320;53.954;9.506;2023-12-22T11:08:21;19.50;;;3.17;;
29314;SDS011;16320;53.954;9.506;2023-12-22T11:10:51;26.48;;;1.92;;
29314;SDS011;16320;53.954;9.506;2023-12-22T11:13:26;11.32;;;1.35;;
29314;SDS011;16320;53.954;9.506;2023-12-22T11:15:56;20.88;;;2.65;;
29314;SDS011;16320;53.954;9.506;2023-12-22T11:18:24;17.30;;;2.08;;
29314;SDS011;16320;53.954;9.506;2023-12-22T11:20:54;19.88;;;2.55;;
29314;SDS011;16320;53.954;9.506;2023-12-22T11:23:24;9.15;;;1.55;;
29314;SDS011;16320;53.954;9.506;2023-12-22T11:25:53;14.20;;;2.40;;
29314;SDS011;16320;53.954;9.506;2023-12-22T11:28:21;14.88;;;1.92;;
29314;SDS011;16320;53.954;9.506;2023-12-22T11:30:51;15.88;;;2.40;;
29314;SDS011;16320;53.954;9.506;2023-12-22T11:33:23;12.30;;;1.98;;
29314;SDS011;16320;53.954;9.506;2023-12-22T11:35:53;14.68;;;2.17;;
29314;SDS011;16320;53.954;9.506;2023-12-22T11:38:23;13.10;;;1.67;;
29314;SDS011;16320;53.954;9.506;2023-12-22T11:40:51;11.82;;;1.67;;
29314;SDS011;16320;53.954;9.506;2023-12-22T11:43:21;6.32;;;1.08;;
29314;SDS011;16320;53.954;9.506;2023-12-22T11:45:49;11.85;;;1.42;;
29314;SDS011;16320;53.954;9.506;2023-12-22T11:48:18;6.25;;;1.10;;
29314;SDS011;16320;53.954;9.506;2023-12-22T11:50:47;13.88;;;1.33;;
29314;SDS011;16320;53.954;9.506;2023-12-22T11:53:22;13.05;;;1.73;;
29314;SDS011;16320;53.954;9.506;2023-12-22T11:56:04;14.45;;;1.73;;
29314;SDS011;16320;53.954;9.506;2023-12-22T11:58:35;9.93;;;1.60;;
29314;SDS011;16320;53.954;9.506;2023-12-22T12:03:48;13.93;;;1.30;;
29314;SDS011;16320;53.954;9.506;2023-12-22T12:08:56;6.40;;;1.50;;
29314;SDS011;16320;53.954;9.506;2023-12-22T12:14:22;9.65;;;1.17;;
29314;SDS011;16320;53.954;9.506;2023-12-22T12:16:57;11.10;;;1.42;;
29314;SDS011;16320;53.954;9.506;2023-12-22T12:19:34;10.45;;;1.08;;
29314;SDS011;16320;53.954;9.506;2023-12-22T12:22:05;6.10;;;0.80;;
29314;SDS011;16320;53.954;9.506;2023-12-22T12:24:33;7.05;;;0.93;;
29314;SDS011;16320;53.954;9.506;2023-12-22T12:27:03;3.60;;;0.80;;
29314;SDS011;16320;53.954;9.506;2023-12-22T12:29:32;7.30;;;0.80;;
29314;SDS011;16320;53.954;9.506;2023-12-22T12:32:07;4.63;;;1.05;;
29314;SDS011;16320;53.954;9.506;2023-12-22T12:34:35;13.70;;;1.50;;
29314;SDS011;16320;53.954;9.506;2023-12-22T12:37:04;8.13;;;1.60;;
29314;SDS011;16320;53.954;9.506;2023-12-22T12:39:34;12.02;;;1.25;;
29314;SDS011;16320;53.954;9.506;2023-12-22T12:42:02;13.00;;;1.80;;
29314;SDS011;16320;53.954;9.506;2023-12-22T12:44:35;14.38;;;1.60;;
29314;SDS011;16320;53.954;9.506;2023-12-22T12:47:11;20.98;;;1.88;;
29314;SDS011;16320;53.954;9.506;2023-12-22T12:49:40;13.98;;;2.33;;
29314;SDS011;16320;53.954;9.506;2023-12-22T12:52:12;13.50;;;1.90;;
29314;SDS011;16320;53.954;9.506;2023-12-22T12:54:43;11.32;;;3.28;;
29314;SDS011;16320;53.954;9.506;2023-12-22T12:57:15;10.90;;;2.28;;
29314;SDS011;16320;53.954;9.506;2023-12-22T12:59:50;14.70;;;2.08;;
29314;SDS011;16320;53.954;9.506;2023-12-22T13:02:19;8.60;;;1.50;;
29314;SDS011;16320;53.954;9.506;2023-12-22T13:04:49;13.75;;;1.70;;
29314;SDS011;16320;53.954;9.506;2023-12-22T13:07:24;12.35;;;1.77;;
29314;SDS011;16320;53.954;9.506;2023-12-22T13:09:53;10.60;;;1.52;;
29314;SDS011;16320;53.954;9.506;2023-12-22T13:12:23;10.27;;;1.25;;
29314;SDS011;16320;53.954;9.506;2023-12-22T13:14:52;19.25;;;1.58;;
29314;SDS011;16320;53.954;9.506;2023-12-22T13:17:20;3.85;;;0.85;;
29314;SDS011;16320;53.954;9.506;2023-12-22T13:19:48;9.52;;;1.00;;
29314;SDS011;16320;53.954;9.506;2023-12-22T13:22:17;13.30;;;1.40;;
29314;SDS011;16320;53.954;9.506;2023-12-22T13:24:55;13.30;;;1.30;;
29314;SDS011;16320;53.954;9.506;2023-12-22T13:27:24;13.70;;;1.73;;
29314;SDS011;16320;53.954;9.506;2023-12-22T13:29:52;18.83;;;2.75;;
29314;SDS011;16320;53.954;9.506;2023-12-22T13:32:21;10.18;;;1.80;;
29314;SDS011;16320;53.954;9.506;2023-12-22T13:34:52;7.20;;;1.25;;
29314;SDS011;16320;53.954;9.506;2023-12-22T13:37:23;15.23;;;1.48;;
29314;SDS011;16320;53.954;9.506;2023-12-22T13:39:57;13.10;;;2.40;;
29314;SDS011;16320;53.954;9.506;2023-12-22T13:42:25;14.18;;;2.00;;
29314;SDS011;16320;53.954;9.506;2023-12-22T13:44:53;14.75;;;2.25;;
29314;SDS011;16320;53.954;9.506;2023-12-22T13:47:22;10.80;;;2.83;;
29314;SDS011;16320;53.954;9.506;2023-12-22T13:49:53;11.95;;;2.92;;
29314;SDS011;16320;53.954;9.506;2023-12-22T13:52:27;18.05;;;2.88;;
29314;SDS011;16320;53.954;9.506;2023-12-22T13:54:59;11.45;;;1.98;;
29314;SDS011;16320;53.954;9.506;2023-12-22T13:57:28;12.93;;;2.40;;
29314;SDS011;16320;53.954;9.506;2023-12-22T13:59:56;10.60;;;1.48;;
29314;SDS011;16320;53.954;9.506;2023-12-22T14:02:24;9.68;;;1.88;;
29314;SDS011;16320;53.954;9.506;2023-12-22T14:04:52;8.85;;;2.30;;
29314;SDS011;16320;53.954;9.506;2023-12-22T14:07:20;16.38;;;2.25;;
29314;SDS011;16320;53.954;9.506;2023-12-22T14:09:50;8.88;;;3.42;;
29314;SDS011;16320;53.954;9.506;2023-12-22T14:12:18;16.52;;;2.22;;
29314;SDS011;16320;53.954;9.506;2023-12-22T14:14:54;19.00;;;3.22;;
29314;SDS011;16320;53.954;9.506;2023-12-22T14:17:23;14.18;;;1.80;;
29314;SDS011;16320;53.954;9.506;2023-12-22T14:19:55;11.00;;;1.70;;
29314;SDS011;16320;53.954;9.506;2023-12-22T14:22:23;14.68;;;2.03;;
29314;SDS011;16320;53.954;9.506;2023-12-22T14:24:52;18.20;;;2.38;;
29314;SDS011;16320;53.954;9.506;2023-12-22T14:27:22;16.35;;;2.42;;
29314;SDS011;16320;53.954;9.506;2023-12-22T14:29:50;15.15;;;1.95;;
29314;SDS011;16320;53.954;9.506;2023-12-22T14:32:18;12.07;;;2.95;;
29314;SDS011;16320;53.954;9.506;2023-12-22T14:34:47;12.18;;;2.35;;
29314;SDS011;16320;53.954;9.506;2023-12-22T14:37:15;21.48;;;4.20;;
29314;SDS011;16320;53.954;9.506;2023-12-22T14:39:43;14.73;;;1.92;;
29314;SDS011;16320;53.954;9.506;2023-12-22T14:42:12;16.15;;;2.38;;
29314;SDS011;16320;53.954;9.506;2023-12-22T14:44:40;13.85;;;1.70;;
29314;SDS011;16320;53.954;9.506;2023-12-22T14:47:09;12.35;;;1.73;;
29314;SDS011;16320;53.954;9.506;2023-12-22T14:49:39;17.58;;;5.00;;
29314;SDS011;16320;53.954;9.506;2023-12-22T14:52:08;14.70;;;3.22;;
29314;SDS011;16320;53.954;9.506;2023-12-22T14:54:36;11.55;;;2.20;;
29314;SDS011;16320;53.954;9.506;2023-12-22T14:57:04;12.43;;;1.33;;
29314;SDS011;16320;53.954;9.506;2023-12-22T14:59:32;11.48;;;1.40;;
29314;SDS011;16320;53.954;9.506;2023-12-22T15:02:00;10.60;;;1.90;;
29314;SDS011;16320;53.954;9.506;2023-12-22T15:04:30;20.17;;;3.95;;
29314;SDS011;16320;53.954;9.506;2023-12-22T15:07:00;13.13;;;2.17;;